Terminal Aerodrome Forecast
Issued by NWS Detroit/Pontiac, MI

Home | Current Version | Previous Version | Text Only | Print | Product List | Glossary On
Versions: 1 2 3 4 5 6 7 8 9 10 11 12 13 14 15 16 17 18 19
523
FTUS43 KDTX 251453 AAA
TAFFNT
TAF AMD
KFNT 251453Z 2515/2612 04010KT 6SM BR OVC005
     FM251700 03007KT 6SM -SHRA BR BKN007 OVC012
     FM260000 32005KT P6SM OVC006=

USA.gov is the U.S. government's official web portal to all federal, state and local government web resources and services.